Time;durP1;ratioP1;P1;durP2;ratioP2;P2;SDS_P1;SDS_P2;PMS_P1;PMS_P2;Temp;Humidity;BMP_temperature;BMP_pressure;BME280_temperature;BME280_humidity;BME280_pressure;Samples;Min_cycle;Max_cycle;Signal;HPM_P1;HPM_P2
2021/12/13 00:01:58;;;;;;;;;;;;;;;;;;5014319;28;20042;-65
2021/12/13 00:04:33;;;;;;;12.18;6.68;;;;;;;;;;5013584;28;19921;-65
2021/12/13 00:07:08;;;;;;;5.88;5.32;;;;;;;;;;5013843;28;20497;-65
2021/12/13 00:09:42;;;;;;;7.40;5.85;;;;;;;;;;5013528;28;20132;-66
2021/12/13 00:12:11;;;;;;;5.55;4.90;;;;;;;;;;4996206;28;20517;-65
2021/12/13 00:14:45;;;;;;;7.13;6.07;;;;;;;;;;4995932;28;20440;-66
2021/12/13 00:17:24;;;;;;;7.35;6.50;;;;;;;;;;4996387;28;20038;-66
2021/12/13 00:20:16;;;;;;;8.07;6.72;;;;;;;;;;5013394;28;20053;-66
2021/12/13 00:22:50;;;;;;;9.02;5.90;;;;;;;;;;5013930;28;20049;-65
2021/12/13 00:25:22;;;;;;;13.35;7.20;;;;;;;;;;5013274;28;20053;-66
2021/12/13 00:27:57;;;;;;;6.75;5.78;;;;;;;;;;5013435;28;20496;-66
2021/12/13 00:30:52;;;;;;;8.25;6.95;;;;;;;;;;4995571;28;20069;-65
2021/12/13 00:33:33;;;;;;;7.70;5.93;;;;;;;;;;5013384;28;20396;-68
2021/12/13 00:36:18;;;;;;;7.43;6.40;;;;;;;;;;4995513;28;20056;-67
2021/12/13 00:38:48;;;;;;;6.85;5.65;;;;;;;;;;5012989;28;20046;-67
2021/12/13 00:41:22;;;;;;;6.28;5.50;;;;;;;;;;5012951;28;20065;-67
2021/12/13 00:43:54;;;;;;;7.38;6.47;;;;;;;;;;5013405;28;20120;-68
2021/12/13 00:46:23;;;;;;;5.97;5.47;;;;;;;;;;5012885;28;20050;-65
2021/12/13 00:48:53;;;;;;;5.85;4.75;;;;;;;;;;5012790;28;20088;-67
2021/12/13 00:51:29;;;;;;;8.02;5.18;;;;;;;;;;5013250;28;20057;-65
2021/12/13 00:54:33;;;;;;;5.50;4.57;;;;;;;;;;5012527;28;20481;-66
2021/12/13 00:57:00;;;;;;;3.72;3.10;;;;;;;;;;4952370;29;20039;-65
2021/12/13 00:59:43;;;;;;;3.55;3.25;;;;;;;;;;5001094;28;20042;-67
2021/12/13 01:02:39;;;;;;;4.05;2.80;;;;;;;;;;4996020;28;20096;-66
2021/12/13 01:05:26;;;;;;;4.68;3.10;;;;;;;;;;4991237;28;20108;-65
2021/12/13 01:08:11;;;;;;;4.13;3.70;;;;;;;;;;5013189;28;20049;-66
2021/12/13 01:10:38;;;;;;;2.72;2.45;;;;;;;;;;5012714;28;20037;-65
2021/12/13 01:13:32;;;;;;;2.20;2.00;;;;;;;;;;5013012;28;20045;-65
2021/12/13 01:16:32;;;;;;;1.88;1.77;;;;;;;;;;5012776;28;20408;-67
2021/12/13 01:27:43;;;;;;;2.30;2.10;;;;;;;;;;5012739;28;20508;-67
2021/12/13 01:30:13;;;;;;;2.15;2.03;;;;;;;;;;5013008;28;20046;-66
2021/12/13 01:32:44;;;;;;;2.00;1.90;;;;;;;;;;5012386;28;20038;-66
2021/12/13 01:35:21;;;;;;;2.10;2.00;;;;;;;;;;5012567;28;20072;-66
2021/12/13 01:37:52;;;;;;;2.05;1.90;;;;;;;;;;5012389;28;20045;-66
2021/12/13 01:40:25;;;;;;;2.90;1.90;;;;;;;;;;5012943;28;20382;-68
2021/12/13 01:43:01;;;;;;;6.93;2.00;;;;;;;;;;5012481;28;20050;-67
2021/12/13 01:45:31;;;;;;;2.35;1.83;;;;;;;;;;5012330;28;20053;-67
2021/12/13 01:47:59;;;;;;;2.05;1.85;;;;;;;;;;5012113;28;20042;-67
2021/12/13 01:50:31;;;;;;;1.70;1.60;;;;;;;;;;5012902;28;20049;-68
2021/12/13 01:53:00;;;;;;;1.85;1.75;;;;;;;;;;5012501;28;20073;-67
2021/12/13 01:55:34;;;;;;;1.90;1.80;;;;;;;;;;5012323;28;20045;-68
2021/12/13 02:01:09;;;;;;;1.67;1.58;;;;;;;;;;5012625;28;20038;-66
2021/12/13 02:03:47;;;;;;;1.90;1.70;;;;;;;;;;5012375;28;20042;-65
2021/12/13 02:06:41;;;;;;;1.75;1.65;;;;;;;;;;5012519;28;20073;-66
2021/12/13 02:09:12;;;;;;;2.13;1.98;;;;;;;;;;5012557;28;20050;-66
2021/12/13 02:11:41;;;;;;;1.73;1.63;;;;;;;;;;5012741;28;20092;-66
2021/12/13 02:14:15;;;;;;;1.60;1.50;;;;;;;;;;5012821;28;20042;-65
2021/12/13 02:17:11;;;;;;;1.77;1.67;;;;;;;;;;5014876;28;20762;-66
2021/12/13 02:19:41;;;;;;;;;;;;;;;;;;5016039;28;20053;-63
2021/12/13 02:22:26;;;;;;;1.75;1.65;;;;;;;;;;5015998;28;20356;-66
2021/12/13 02:24:56;;;;;;;1.60;1.50;;;;;;;;;;5015955;28;20054;-66
2021/12/13 02:27:27;;;;;;;1.80;1.70;;;;;;;;;;5015615;28;20049;-66
2021/12/13 02:29:56;;;;;;;1.90;1.80;;;;;;;;;;5016107;28;20069;-66
2021/12/13 02:32:27;;;;;;;1.70;1.60;;;;;;;;;;5015486;28;20042;-66
2021/12/13 02:34:58;;;;;;;2.33;2.13;;;;;;;;;;5015746;28;20042;-66
2021/12/13 02:37:26;;;;;;;1.77;1.67;;;;;;;;;;5015331;28;20045;-66
2021/12/13 02:39:58;;;;;;;1.77;1.60;;;;;;;;;;5015719;28;20436;-66
2021/12/13 02:42:27;;;;;;;1.85;1.75;;;;;;;;;;5015334;28;20122;-67
2021/12/13 02:45:02;;;;;;;3.10;2.30;;;;;;;;;;5015643;28;20417;-66
2021/12/13 02:47:38;;;;;;;;;;;;;;;;;;5015943;28;20061;-64
2021/12/13 02:50:12;;;;;;;1.65;1.55;;;;;;;;;;5015533;28;19976;-66
2021/12/13 02:52:40;;;;;;;1.80;1.70;;;;;;;;;;5015550;28;20056;-66
2021/12/13 02:55:16;;;;;;;1.77;1.67;;;;;;;;;;5015104;28;20432;-66
2021/12/13 02:57:46;;;;;;;2.05;1.95;;;;;;;;;;5015848;28;20053;-66
2021/12/13 03:00:43;;;;;;;1.70;1.60;;;;;;;;;;5015168;28;20104;-66
2021/12/13 03:03:14;;;;;;;1.73;1.63;;;;;;;;;;5005486;28;20073;-65
2021/12/13 03:05:45;;;;;;;1.80;1.70;;;;;;;;;;5014959;28;20049;-66
2021/12/13 03:08:28;;;;;;;1.60;1.50;;;;;;;;;;5015583;28;20045;-66
2021/12/13 03:10:59;;;;;;;1.70;1.60;;;;;;;;;;5014900;28;20042;-66
2021/12/13 03:13:27;;;;;;;1.80;1.70;;;;;;;;;;5015144;28;20116;-65
2021/12/13 03:16:16;;;;;;;2.55;1.73;;;;;;;;;;4997491;28;20041;-67
2021/12/13 03:19:32;;;;;;;1.85;1.75;;;;;;;;;;5015502;28;20096;-67
2021/12/13 03:22:08;;;;;;;;;;;;;;;;;;4969754;28;20037;-66
2021/12/13 03:24:34;;;;;;;1.83;1.73;;;;;;;;;;4997712;28;19921;-67
2021/12/13 03:27:04;;;;;;;1.67;1.58;;;;;;;;;;5013589;28;20041;-66
2021/12/13 03:29:52;;;;;;;1.42;1.42;;;;;;;;;;5015144;28;20046;-67
2021/12/13 03:32:21;;;;;;;1.77;1.67;;;;;;;;;;5014642;28;20045;-67
2021/12/13 03:35:01;;;;;;;1.80;1.70;;;;;;;;;;5014592;28;20041;-67
2021/12/13 03:37:29;;;;;;;1.52;1.52;;;;;;;;;;4997048;28;20064;-68
2021/12/13 03:40:00;;;;;;;1.80;1.70;;;;;;;;;;5014759;28;20489;-65
2021/12/13 03:42:31;;;;;;;1.70;1.60;;;;;;;;;;5014620;28;20038;-67
2021/12/13 03:45:01;;;;;;;2.22;2.03;;;;;;;;;;5028864;22;20046;-60
2021/12/13 03:47:35;;;;;;;1.83;1.73;;;;;;;;;;4974732;28;20160;-61
2021/12/13 03:50:09;;;;;;;1.90;1.80;;;;;;;;;;4975070;28;20039;-60
2021/12/13 03:52:41;;;;;;;1.90;1.80;;;;;;;;;;4975363;28;20042;-60
2021/12/13 03:55:11;;;;;;;1.80;1.70;;;;;;;;;;4974283;28;20117;-61
2021/12/13 03:57:45;;;;;;;1.60;1.55;;;;;;;;;;4990204;28;20930;-61
2021/12/13 04:00:18;;;;;;;1.73;1.63;;;;;;;;;;4994886;28;20400;-61
2021/12/13 04:02:47;;;;;;;1.45;1.42;;;;;;;;;;4994962;28;20046;-61
2021/12/13 04:05:18;;;;;;;2.03;1.85;;;;;;;;;;4994879;28;20073;-60
2021/12/13 04:07:53;;;;;;;1.60;1.50;;;;;;;;;;5001277;28;20042;-63
2021/12/13 04:10:32;;;;;;;1.92;1.83;;;;;;;;;;5013553;28;20038;-61
2021/12/13 04:13:08;;;;;;;1.77;1.67;;;;;;;;;;5014186;28;20092;-62
2021/12/13 04:15:57;;;;;;;1.70;1.60;;;;;;;;;;5013280;28;20046;-62
2021/12/13 04:21:17;;;;;;;2.28;1.80;;;;;;;;;;5013256;28;20096;-63
2021/12/13 04:23:53;;;;;;;1.60;1.50;;;;;;;;;;5013479;28;20046;-63
2021/12/13 04:26:21;;;;;;;1.60;1.50;;;;;;;;;;5013855;28;20404;-63
2021/12/13 04:28:54;;;;;;;1.70;1.60;;;;;;;;;;5013219;28;20041;-63
2021/12/13 04:31:25;;;;;;;1.60;1.50;;;;;;;;;;5013989;28;20444;-63
2021/12/13 04:34:01;;;;;;;1.35;1.30;;;;;;;;;;5013209;28;20052;-64
2021/12/13 04:36:37;;;;;;;1.67;1.58;;;;;;;;;;5013794;28;20053;-63
2021/12/13 04:39:22;;;;;;;1.58;1.48;;;;;;;;;;5011361;28;20046;-63
2021/12/13 04:41:53;;;;;;;1.50;1.40;;;;;;;;;;4994244;28;20050;-62
2021/12/13 04:44:57;;;;;;;1.60;1.50;;;;;;;;;;4993833;28;20404;-62
2021/12/13 04:47:35;;;;;;;1.48;1.40;;;;;;;;;;4953056;28;20058;-62
2021/12/13 04:50:13;;;;;;;1.30;1.30;;;;;;;;;;4993709;28;20417;-62
2021/12/13 04:52:41;;;;;;;1.63;1.30;;;;;;;;;;4993730;28;20053;-63
2021/12/13 04:55:16;;;;;;;1.80;1.60;;;;;;;;;;4993210;28;20042;-62
2021/12/13 04:57:43;;;;;;;1.45;1.40;;;;;;;;;;4993603;28;20540;-62
2021/12/13 05:00:18;;;;;;;1.48;1.40;;;;;;;;;;4993546;28;20105;-61
2021/12/13 05:02:51;;;;;;;1.50;1.40;;;;;;;;;;4993986;28;20052;-61
2021/12/13 05:05:19;;;;;;;1.30;1.30;;;;;;;;;;4993403;28;20428;-61
2021/12/13 05:07:48;;;;;;;1.33;1.30;;;;;;;;;;4993555;28;20512;-61
2021/12/13 05:10:16;;;;;;;1.58;1.48;;;;;;;;;;4993490;28;20061;-61
2021/12/13 05:13:11;;;;;;;1.35;1.30;;;;;;;;;;4993337;28;20494;-62
2021/12/13 05:15:41;;;;;;;1.50;1.50;;;;;;;;;;5009270;28;20491;-61
2021/12/13 05:18:17;;;;;;;1.40;1.40;;;;;;;;;;5012654;28;20049;-61
2021/12/13 05:20:44;;;;;;;1.50;1.40;;;;;;;;;;4995547;28;20073;-62
2021/12/13 05:23:20;;;;;;;1.70;1.60;;;;;;;;;;5012102;28;20042;-62
2021/12/13 05:25:57;;;;;;;1.95;1.85;;;;;;;;;;5013180;28;20046;-60
2021/12/13 05:28:46;;;;;;;1.70;1.60;;;;;;;;;;5012864;28;20080;-60
2021/12/13 05:31:20;;;;;;;1.80;1.70;;;;;;;;;;5012843;28;20134;-62
2021/12/13 05:33:51;;;;;;;3.05;1.42;;;;;;;;;;5012613;28;20053;-61
2021/12/13 05:36:38;;;;;;;1.50;1.40;;;;;;;;;;5012887;28;20132;-61
2021/12/13 05:39:15;;;;;;;1.80;1.70;;;;;;;;;;5012357;28;20042;-61
2021/12/13 05:41:57;;;;;;;1.50;1.40;;;;;;;;;;5012603;28;20432;-62
2021/12/13 05:44:28;;;;;;;1.60;1.50;;;;;;;;;;4995142;28;20046;-61
2021/12/13 05:46:57;;;;;;;2.08;1.40;;;;;;;;;;5012832;28;20453;-61
2021/12/13 05:49:26;;;;;;;1.35;1.35;;;;;;;;;;5013280;28;20045;-61
2021/12/13 05:52:08;;;;;;;1.70;1.60;;;;;;;;;;5016761;28;20546;-62
2021/12/13 05:54:43;;;;;;;2.22;1.55;;;;;;;;;;5006249;28;20046;-61
2021/12/13 05:57:36;;;;;;;1.60;1.50;;;;;;;;;;4997129;28;20054;-63
2021/12/13 06:00:20;;;;;;;1.25;1.25;;;;;;;;;;4996294;28;20086;-62
2021/12/13 06:03:16;;;;;;;1.20;1.20;;;;;;;;;;4996925;28;20512;-61
2021/12/13 06:05:48;;;;;;;1.27;1.27;;;;;;;;;;4996465;28;20050;-62
2021/12/13 06:08:22;;;;;;;1.60;1.50;;;;;;;;;;4996918;28;20054;-62
2021/12/13 06:11:11;;;;;;;2.08;1.98;;;;;;;;;;4996458;28;20065;-63
2021/12/13 06:13:46;;;;;;;2.20;2.00;;;;;;;;;;4996287;28;20058;-62
2021/12/13 06:16:19;;;;;;;1.40;1.40;;;;;;;;;;4995685;28;20049;-60
2021/12/13 06:18:58;;;;;;;1.70;1.60;;;;;;;;;;4983241;28;20042;-61
2021/12/13 06:21:40;;;;;;;15.60;1.92;;;;;;;;;;4991096;28;20038;-59
2021/12/13 06:24:09;;;;;;;1.42;1.40;;;;;;;;;;4992192;28;20046;-62
2021/12/13 06:26:37;;;;;;;1.33;1.30;;;;;;;;;;4992532;28;20116;-62
2021/12/13 06:29:07;;;;;;;1.48;1.38;;;;;;;;;;4992102;28;20405;-62
2021/12/13 06:31:40;;;;;;;1.50;1.48;;;;;;;;;;4993424;28;20433;-62
2021/12/13 06:34:10;;;;;;;18.02;8.43;;;;;;;;;;4992249;28;20057;-61
2021/12/13 06:36:49;;;;;;;15.68;9.38;;;;;;;;;;4989820;28;20076;-62
2021/12/13 06:39:18;;;;;;;4.68;2.95;;;;;;;;;;4992248;28;20046;-63
2021/12/13 06:41:49;;;;;;;2.90;1.90;;;;;;;;;;4998031;28;20054;-62
2021/12/13 06:44:24;;;;;;;1.50;1.40;;;;;;;;;;4994409;28;20049;-62
2021/12/13 06:47:00;;;;;;;1.67;1.50;;;;;;;;;;4993624;28;20065;-60
2021/12/13 06:49:43;;;;;;;1.20;1.20;;;;;;;;;;4994499;28;20049;-61
2021/12/13 06:52:13;;;;;;;1.30;1.20;;;;;;;;;;4995961;28;20501;-61
2021/12/13 06:54:55;;;;;;;1.27;1.20;;;;;;;;;;4994893;28;20039;-60
2021/12/13 06:57:32;;;;;;;1.50;1.40;;;;;;;;;;4987656;28;20382;-60
2021/12/13 07:00:07;;;;;;;1.20;1.20;;;;;;;;;;4993855;28;20054;-61
2021/12/13 07:02:46;;;;;;;1.95;1.85;;;;;;;;;;4992939;28;20054;-62
2021/12/13 07:05:33;;;;;;;1.35;1.35;;;;;;;;;;4994066;28;20144;-62
2021/12/13 07:08:08;;;;;;;2.70;1.40;;;;;;;;;;4987784;28;20042;-62
2021/12/13 07:10:45;;;;;;;1.30;1.30;;;;;;;;;;4995285;28;20042;-62
2021/12/13 07:13:32;;;;;;;1.20;1.20;;;;;;;;;;4995437;28;20057;-60
2021/12/13 07:16:11;;;;;;;3.03;1.40;;;;;;;;;;4995786;28;20597;-60
2021/12/13 07:19:00;;;;;;;4.88;1.73;;;;;;;;;;4989907;28;20102;-62
2021/12/13 07:21:33;;;;;;;2.33;2.00;;;;;;;;;;4995957;28;20065;-62
2021/12/13 07:24:06;;;;;;;8.32;4.50;;;;;;;;;;4995247;28;20046;-61
2021/12/13 07:26:42;;;;;;;5.03;3.40;;;;;;;;;;4995621;28;20485;-62
2021/12/13 07:29:21;;;;;;;6.35;3.95;;;;;;;;;;4995297;28;20393;-61
2021/12/13 07:32:21;;;;;;;8.70;5.35;;;;;;;;;;4995539;28;20405;-62
2021/12/13 07:35:03;;;;;;;42.28;20.05;;;;;;;;;;4994938;28;20057;-68
2021/12/13 07:37:52;;;;;;;7.13;4.47;;;;;;;;;;4995253;28;20137;-71
2021/12/13 07:40:29;;;;;;;4.72;3.10;;;;;;;;;;4994905;28;20039;-70
2021/12/13 07:43:28;;;;;;;12.98;7.68;;;;;;;;;;4995162;28;20046;-62
2021/12/13 07:45:58;;;;;;;8.15;4.95;;;;;;;;;;4994234;28;20046;-62
2021/12/13 07:48:50;;;;;;;4.30;3.40;;;;;;;;;;4994821;28;20046;-62
2021/12/13 07:51:34;;;;;;;4.32;2.83;;;;;;;;;;4994513;28;20061;-62
2021/12/13 07:54:07;;;;;;;15.70;9.85;;;;;;;;;;4994846;28;20042;-63
2021/12/13 07:56:35;;;;;;;14.07;9.50;;;;;;;;;;4994343;28;20401;-61
2021/12/13 07:59:14;;;;;;;11.95;7.60;;;;;;;;;;4997370;28;20045;-62
2021/12/13 08:01:46;;;;;;;9.27;6.13;;;;;;;;;;4996934;28;20051;-62
2021/12/13 08:04:22;;;;;;;16.98;10.80;;;;;;;;;;4994727;28;20054;-62
2021/12/13 08:06:53;;;;;;;4.90;3.95;;;;;;;;;;4994223;28;20555;-61
2021/12/13 08:09:23;;;;;;;7.07;5.15;;;;;;;;;;4994660;28;20054;-62
2021/12/13 08:11:54;;;;;;;3.72;3.42;;;;;;;;;;4994149;28;20083;-63
2021/12/13 08:14:37;;;;;;;3.20;1.98;;;;;;;;;;4995867;28;20046;-63
2021/12/13 08:17:17;;;;;;;4.53;2.92;;;;;;;;;;4994980;28;20444;-63
2021/12/13 08:19:54;;;;;;;7.65;3.75;;;;;;;;;;4994318;28;20069;-63
2021/12/13 08:22:21;;;;;;;9.55;6.20;;;;;;;;;;4994561;28;20069;-63
2021/12/13 08:24:53;;;;;;;10.07;6.75;;;;;;;;;;4993791;28;20046;-60
2021/12/13 08:27:41;;;;;;;16.52;7.32;;;;;;;;;;5004917;28;20056;-63
2021/12/13 08:30:16;;;;;;;18.20;7.35;;;;;;;;;;5013562;28;20436;-61
2021/12/13 08:33:08;;;;;;;21.13;7.38;;;;;;;;;;5013449;28;20049;-63
2021/12/13 08:35:49;;;;;;;15.77;6.40;;;;;;;;;;4985253;28;20512;-63
2021/12/13 08:38:30;;;;;;;11.02;5.68;;;;;;;;;;4994004;28;20057;-62
2021/12/13 08:41:04;;;;;;;33.75;6.70;;;;;;;;;;4994150;28;20397;-62
2021/12/13 08:44:01;;;;;;;16.58;6.22;;;;;;;;;;4994216;28;20038;-62
2021/12/13 08:46:45;;;;;;;6.65;4.55;;;;;;;;;;4993350;28;20421;-61
2021/12/13 08:49:17;;;;;;;6.47;5.22;;;;;;;;;;4994098;28;20057;-62
2021/12/13 08:52:16;;;;;;;11.65;6.00;;;;;;;;;;4993351;28;20528;-63
2021/12/13 08:54:51;;;;;;;29.38;5.82;;;;;;;;;;4993733;28;20046;-63
2021/12/13 08:58:12;;;;;;;13.55;5.22;;;;;;;;;;4993230;28;20053;-61
2021/12/13 09:01:03;;;;;;;15.73;6.00;;;;;;;;;;4914687;29;20205;-63
2021/12/13 09:03:40;;;;;;;16.13;5.78;;;;;;;;;;4993591;28;20038;-63
2021/12/13 09:06:16;;;;;;;6.93;4.53;;;;;;;;;;4993981;28;20100;-62
2021/12/13 09:08:48;;;;;;;6.75;4.65;;;;;;;;;;4993745;28;20070;-62
2021/12/13 09:11:40;;;;;;;15.02;5.43;;;;;;;;;;4993450;28;20528;-62
2021/12/13 09:14:13;;;;;;;11.00;5.97;;;;;;;;;;4993507;28;20516;-62
2021/12/13 09:16:50;;;;;;;15.45;5.53;;;;;;;;;;4993771;28;20049;-62
2021/12/13 09:19:25;;;;;;;6.13;5.13;;;;;;;;;;4993559;28;20066;-62
2021/12/13 09:22:09;;;;;;;11.15;5.32;;;;;;;;;;4993440;28;20057;-62
2021/12/13 09:24:36;;;;;;;25.88;6.55;;;;;;;;;;4992761;28;20057;-63
2021/12/13 09:27:31;;;;;;;7.22;5.90;;;;;;;;;;4993302;28;20502;-62
2021/12/13 09:30:04;;;;;;;12.57;7.82;;;;;;;;;;4993284;28;20053;-61
2021/12/13 09:32:49;;;;;;;22.25;7.20;;;;;;;;;;5005124;28;20500;-63
2021/12/13 09:35:36;;;;;;;6.25;4.00;;;;;;;;;;4993245;28;20493;-62
2021/12/13 09:38:25;;;;;;;14.23;4.95;;;;;;;;;;4993304;28;20065;-60
2021/12/13 09:40:58;;;;;;;9.10;5.65;;;;;;;;;;4992843;28;20065;-61
2021/12/13 09:43:48;;;;;;;7.03;5.70;;;;;;;;;;4993562;28;20106;-62
2021/12/13 09:46:20;;;;;;;8.57;5.38;;;;;;;;;;4992632;28;20142;-63
2021/12/13 09:48:51;;;;;;;11.85;5.75;;;;;;;;;;4993164;28;20051;-63
2021/12/13 09:51:25;;;;;;;9.02;5.18;;;;;;;;;;5000327;28;20046;-63
2021/12/13 09:53:55;;;;;;;7.30;5.03;;;;;;;;;;4993090;28;20497;-63
2021/12/13 09:56:24;;;;;;;11.32;5.20;;;;;;;;;;4993059;28;20065;-63
2021/12/13 09:58:59;;;;;;;20.02;7.10;;;;;;;;;;4993105;28;20054;-63
2021/12/13 10:01:29;;;;;;;14.50;6.63;;;;;;;;;;4973437;28;20046;-63
2021/12/13 10:04:02;;;;;;;9.85;5.50;;;;;;;;;;4980263;28;20102;-62
2021/12/13 10:06:37;;;;;;;9.88;6.38;;;;;;;;;;4989817;28;20046;-63
2021/12/13 10:09:10;;;;;;;9.10;5.25;;;;;;;;;;4993160;28;20085;-64
2021/12/13 10:11:49;;;;;;;10.35;5.90;;;;;;;;;;4993126;28;20038;-63
2021/12/13 10:14:20;;;;;;;12.90;5.90;;;;;;;;;;4993234;28;20042;-63
2021/12/13 10:16:50;;;;;;;8.52;5.35;;;;;;;;;;4987483;28;20061;-63
2021/12/13 10:19:21;;;;;;;14.00;6.70;;;;;;;;;;4992529;28;20060;-63
2021/12/13 10:21:48;;;;;;;7.80;4.82;;;;;;;;;;4992935;28;20042;-64
2021/12/13 10:24:44;;;;;;;7.40;5.68;;;;;;;;;;4992707;28;20378;-64
2021/12/13 10:27:14;;;;;;;7.78;6.07;;;;;;;;;;4993276;28;20476;-64
2021/12/13 10:29:44;;;;;;;12.25;6.28;;;;;;;;;;4992762;28;20053;-64
2021/12/13 10:32:17;;;;;;;13.27;7.53;;;;;;;;;;4987142;28;20054;-64
2021/12/13 10:34:48;;;;;;;10.48;6.22;;;;;;;;;;4992817;28;20050;-63
2021/12/13 10:37:37;;;;;;;12.27;7.13;;;;;;;;;;4996483;28;20050;-64
2021/12/13 10:40:08;;;;;;;24.77;8.10;;;;;;;;;;4996112;28;20195;-63
2021/12/13 10:42:41;;;;;;;20.15;7.15;;;;;;;;;;4995807;28;20074;-64
2021/12/13 10:45:17;;;;;;;9.77;7.47;;;;;;;;;;4996129;28;20045;-63
2021/12/13 10:47:47;;;;;;;17.15;9.70;;;;;;;;;;4996476;28;20136;-63
2021/12/13 10:50:21;;;;;;;12.82;7.78;;;;;;;;;;4995904;28;20429;-64
2021/12/13 10:52:53;;;;;;;11.73;7.22;;;;;;;;;;4996049;28;20053;-63
2021/12/13 10:55:30;;;;;;;13.80;7.18;;;;;;;;;;4996176;28;20117;-62
2021/12/13 10:57:58;;;;;;;15.55;7.45;;;;;;;;;;4995703;28;20448;-62
2021/12/13 11:00:28;;;;;;;14.20;6.47;;;;;;;;;;5013433;28;20069;-63
2021/12/13 11:03:05;;;;;;;11.63;7.65;;;;;;;;;;4980224;28;20050;-61
2021/12/13 11:05:33;;;;;;;11.90;6.63;;;;;;;;;;4995879;28;20050;-63
2021/12/13 11:08:01;;;;;;;12.13;5.68;;;;;;;;;;4995520;28;20497;-61
2021/12/13 11:10:34;;;;;;;8.40;5.97;;;;;;;;;;4995677;28;20512;-63
2021/12/13 11:13:21;;;;;;;11.88;5.82;;;;;;;;;;4995455;28;20053;-62
2021/12/13 11:15:51;;;;;;;6.50;5.75;;;;;;;;;;4995616;28;20049;-62
2021/12/13 11:18:27;;;;;;;10.65;5.80;;;;;;;;;;4995031;28;20042;-62
2021/12/13 11:21:07;;;;;;;10.18;5.80;;;;;;;;;;4995443;28;20046;-63
2021/12/13 11:23:35;;;;;;;9.30;6.60;;;;;;;;;;4994969;28;20042;-62
2021/12/13 11:26:06;;;;;;;14.10;6.40;;;;;;;;;;4995851;28;20043;-63
2021/12/13 11:28:35;;;;;;;10.68;5.55;;;;;;;;;;4995335;28;20046;-63
2021/12/13 11:31:24;;;;;;;9.52;6.00;;;;;;;;;;4977898;28;20097;-63
2021/12/13 11:34:01;;;;;;;9.07;5.60;;;;;;;;;;4994994;28;20043;-63
2021/12/13 11:36:50;;;;;;;8.10;5.95;;;;;;;;;;4995200;28;20509;-63
2021/12/13 11:39:41;;;;;;;10.55;5.85;;;;;;;;;;4994647;28;20043;-64
2021/12/13 11:42:46;;;;;;;8.00;5.93;;;;;;;;;;4995263;28;20050;-64
2021/12/13 11:45:13;;;;;;;9.75;6.50;;;;;;;;;;4934423;29;20043;-63
2021/12/13 11:48:23;;;;;;;7.32;5.35;;;;;;;;;;4984482;28;20476;-63
2021/12/13 11:51:17;;;;;;;13.30;6.53;;;;;;;;;;4994731;28;20050;-61
2021/12/13 11:54:20;;;;;;;7.28;6.28;;;;;;;;;;4994833;28;20046;-63
2021/12/13 11:57:24;;;;;;;7.90;5.45;;;;;;;;;;4994525;28;20050;-64
2021/12/13 12:00:15;;;;;;;10.75;6.15;;;;;;;;;;4994730;28;20043;-65
2021/12/13 12:03:20;;;;;;;12.88;6.07;;;;;;;;;;4994286;28;20054;-64
2021/12/13 12:06:25;;;;;;;6.22;4.97;;;;;;;;;;4979536;28;20046;-62
2021/12/13 12:09:29;;;;;;;10.73;6.13;;;;;;;;;;4987517;28;20093;-62
2021/12/13 12:12:34;;;;;;;9.90;5.57;;;;;;;;;;4992400;28;20048;-63
2021/12/13 12:15:02;;;;;;;14.07;5.53;;;;;;;;;;4984207;28;20297;-63
2021/12/13 12:17:30;;;;;;;5.40;4.13;;;;;;;;;;4989576;28;20096;-64
2021/12/13 12:19:58;;;;;;;7.53;4.40;;;;;;;;;;4992000;28;20038;-64
2021/12/13 12:22:46;;;;;;;20.05;4.40;;;;;;;;;;4990632;28;20054;-63
2021/12/13 12:25:13;;;;;;;10.60;4.38;;;;;;;;;;4986482;28;20516;-64
2021/12/13 12:27:40;;;;;;;6.50;3.25;;;;;;;;;;4976475;28;20092;-64
2021/12/13 12:30:12;;;;;;;7.90;4.25;;;;;;;;;;4991348;28;20121;-63
2021/12/13 12:32:43;;;;;;;8.57;4.30;;;;;;;;;;4994283;28;20050;-61
2021/12/13 12:35:11;;;;;;;9.80;5.68;;;;;;;;;;4984247;28;20100;-62
2021/12/13 12:37:53;;;;;;;11.27;5.85;;;;;;;;;;4980771;28;20133;-62
2021/12/13 12:40:40;;;;;;;6.07;3.40;;;;;;;;;;4986850;28;20569;-60
2021/12/13 12:43:13;;;;;;;7.07;3.60;;;;;;;;;;4989065;28;20050;-60
2021/12/13 12:45:49;;;;;;;4.30;3.50;;;;;;;;;;4988109;28;20482;-62
2021/12/13 12:48:31;;;;;;;8.10;4.32;;;;;;;;;;4989412;28;20053;-62
2021/12/13 12:51:18;;;;;;;6.82;3.13;;;;;;;;;;4989616;28;20035;-62
2021/12/13 12:53:52;;;;;;;6.72;3.05;;;;;;;;;;4983542;28;20483;-60
2021/12/13 12:56:32;;;;;;;5.95;3.42;;;;;;;;;;4987234;28;20571;-61
2021/12/13 12:59:06;;;;;;;6.95;3.17;;;;;;;;;;4990664;28;20073;-61
2021/12/13 13:01:38;;;;;;;4.50;3.95;;;;;;;;;;4995395;28;20519;-62
2021/12/13 13:04:26;;;;;;;9.57;5.28;;;;;;;;;;4997559;28;20054;-61
2021/12/13 13:07:05;;;;;;;5.43;3.83;;;;;;;;;;4982759;28;20046;-61
2021/12/13 13:09:55;;;;;;;6.65;3.13;;;;;;;;;;4986991;28;20061;-61
2021/12/13 13:12:28;;;;;;;3.53;3.22;;;;;;;;;;4996674;28;20046;-63
2021/12/13 13:14:59;;;;;;;5.30;3.40;;;;;;;;;;4994391;28;20065;-59
2021/12/13 13:17:29;;;;;;;4.00;3.25;;;;;;;;;;4983216;28;20088;-61
2021/12/13 13:20:21;;;;;;;4.25;3.33;;;;;;;;;;4984563;28;20046;-61
2021/12/13 13:22:49;;;;;;;8.45;3.65;;;;;;;;;;4995759;28;20042;-61
2021/12/13 13:25:35;;;;;;;4.45;3.58;;;;;;;;;;4998291;28;20069;-60
2021/12/13 13:28:14;;;;;;;5.90;4.15;;;;;;;;;;4993821;28;20050;-61
2021/12/13 13:30:52;;;;;;;7.07;4.47;;;;;;;;;;4991535;28;20042;-61
2021/12/13 13:33:49;;;;;;;12.38;4.15;;;;;;;;;;4998176;28;20047;-60
2021/12/13 13:36:28;;;;;;;6.25;3.13;;;;;;;;;;4998505;28;20129;-60
2021/12/13 13:39:14;;;;;;;10.77;3.47;;;;;;;;;;4979259;28;20054;-60
2021/12/13 13:41:43;;;;;;;13.43;4.45;;;;;;;;;;4992617;28;20182;-60
2021/12/13 13:44:14;;;;;;;7.53;3.72;;;;;;;;;;4995068;28;20072;-60
2021/12/13 13:46:42;;;;;;;4.65;3.83;;;;;;;;;;4992932;28;20114;-60
2021/12/13 13:49:09;;;;;;;9.35;3.05;;;;;;;;;;4996478;28;20057;-63
2021/12/13 13:51:37;;;;;;;10.55;5.32;;;;;;;;;;4978647;28;20072;-61
2021/12/13 13:54:06;;;;;;;5.05;4.30;;;;;;;;;;4997299;28;20041;-60
2021/12/13 13:56:39;;;;;;;10.75;3.80;;;;;;;;;;4996808;28;20049;-62
2021/12/13 13:59:19;;;;;;;5.15;4.22;;;;;;;;;;5002034;28;20527;-61
2021/12/13 14:01:58;;;;;;;10.82;3.97;;;;;;;;;;4997676;28;20129;-61
2021/12/13 14:04:37;;;;;;;4.20;3.30;;;;;;;;;;4990160;28;20046;-61
2021/12/13 14:07:18;;;;;;;4.43;3.40;;;;;;;;;;4997551;28;20358;-60
2021/12/13 14:09:54;;;;;;;4.60;4.07;;;;;;;;;;4989502;28;20056;-60
2021/12/13 14:12:23;;;;;;;13.55;4.80;;;;;;;;;;4995089;28;20050;-60
2021/12/13 14:14:55;;;;;;;9.05;6.20;;;;;;;;;;4998695;28;20050;-58
2021/12/13 14:17:44;;;;;;;13.30;6.50;;;;;;;;;;4973418;28;20042;-60
2021/12/13 14:20:32;;;;;;;10.95;5.30;;;;;;;;;;4981873;28;20042;-60
2021/12/13 14:23:23;;;;;;;9.18;5.60;;;;;;;;;;4981593;28;20402;-63
2021/12/13 14:25:51;;;;;;;9.13;6.35;;;;;;;;;;4994346;28;20397;-63
2021/12/13 14:28:30;;;;;;;7.70;5.70;;;;;;;;;;4994934;28;20452;-63
2021/12/13 14:30:57;;;;;;;17.67;6.07;;;;;;;;;;4991333;28;20046;-61
2021/12/13 14:33:32;;;;;;;9.15;6.57;;;;;;;;;;4991059;28;20038;-60
2021/12/13 14:36:14;;;;;;;8.10;5.85;;;;;;;;;;4989898;28;20042;-63
2021/12/13 14:38:49;;;;;;;14.27;6.35;;;;;;;;;;4995383;28;20050;-62
2021/12/13 14:41:18;;;;;;;11.85;6.85;;;;;;;;;;4996550;28;20057;-61
2021/12/13 14:43:58;;;;;;;10.48;7.03;;;;;;;;;;4993171;28;20404;-62
2021/12/13 14:46:28;;;;;;;16.27;9.82;;;;;;;;;;4995367;28;20134;-62
2021/12/13 14:49:18;;;;;;;21.55;6.80;;;;;;;;;;4995576;28;20038;-61
2021/12/13 14:51:52;;;;;;;7.50;5.22;;;;;;;;;;4989937;28;20053;-61
2021/12/13 14:54:23;;;;;;;9.32;5.82;;;;;;;;;;4981437;28;20051;-59
2021/12/13 14:56:52;;;;;;;10.50;4.57;;;;;;;;;;4991538;28;20050;-60
2021/12/13 14:59:30;;;;;;;6.95;4.53;;;;;;;;;;4990902;28;20069;-60
2021/12/13 15:01:57;;;;;;;11.68;6.25;;;;;;;;;;4986187;28;20042;-59
2021/12/13 15:04:28;;;;;;;7.53;4.85;;;;;;;;;;4994040;28;20485;-62
2021/12/13 15:06:59;;;;;;;5.05;3.80;;;;;;;;;;4990474;28;20383;-61
2021/12/13 15:09:30;;;;;;;8.35;4.28;;;;;;;;;;4982727;28;20054;-59
2021/12/13 15:12:03;;;;;;;6.90;4.93;;;;;;;;;;4978772;28;20089;-61
2021/12/13 15:14:34;;;;;;;6.60;5.30;;;;;;;;;;4979262;28;20053;-61
2021/12/13 15:17:29;;;;;;;7.97;4.45;;;;;;;;;;4990324;28;20067;-61
2021/12/13 15:20:05;;;;;;;;;;;;;;;;;;4992166;28;20137;-58
2021/12/13 15:22:51;;;;;;;8.90;6.95;;;;;;;;;;4983789;28;19949;-65
2021/12/13 15:25:40;;;;;;;7.60;6.47;;;;;;;;;;4987022;28;20434;-63
2021/12/13 15:28:09;;;;;;;6.85;4.57;;;;;;;;;;4989937;28;20042;-62
2021/12/13 15:30:36;;;;;;;9.80;5.95;;;;;;;;;;4981403;28;20520;-63
2021/12/13 15:33:05;;;;;;;5.88;5.03;;;;;;;;;;4991702;28;20425;-59
2021/12/13 15:35:35;;;;;;;15.27;5.90;;;;;;;;;;4989713;28;20093;-61
2021/12/13 15:38:08;;;;;;;7.15;4.88;;;;;;;;;;4991476;28;20045;-63
2021/12/13 15:40:39;;;;;;;6.88;4.07;;;;;;;;;;4993642;28;20104;-61
2021/12/13 15:43:39;;;;;;;12.50;5.57;;;;;;;;;;4994066;28;20051;-63
2021/12/13 15:46:11;;;;;;;6.20;4.65;;;;;;;;;;4969237;28;20117;-62
2021/12/13 15:51:33;;;;;;;11.82;7.55;;;;;;;;;;4982569;28;20053;-60
2021/12/13 15:54:21;;;;;;;12.77;7.18;;;;;;;;;;4977388;28;20049;-61
2021/12/13 15:56:53;;;;;;;7.47;5.50;;;;;;;;;;4980803;28;20046;-60
2021/12/13 15:59:24;;;;;;;11.77;6.18;;;;;;;;;;4979106;28;20046;-61